Time;durP1;ratioP1;P1;durP2;ratioP2;P2;SDS_P1;SDS_P2;PMS_P1;PMS_P2;Temp;Humidity;BMP_temperature;BMP_pressure;BME280_temperature;BME280_humidity;BME280_pressure;Samples;Min_cycle;Max_cycle;Signal;HPM_P1;HPM_P2
2022/01/16 00:04:53;;;;;;;39.30;19.17;;;;;;;-0.11;72.95;95606.75;5027656;28;20820;-82
2022/01/16 00:07:22;;;;;;;35.97;16.47;;;;;;;-0.06;73.32;95594.41;5029400;28;20214;-82
2022/01/16 00:09:50;;;;;;;37.27;15.57;;;;;;;-0.15;74.34;95570.47;5058790;28;20253;-82
2022/01/16 00:12:22;;;;;;;30.37;15.30;;;;;;;-0.13;75.06;95588.19;5090016;28;20202;-81
2022/01/16 00:14:50;;;;;;;34.73;15.63;;;;;;;-0.21;76.63;95593.97;5102355;28;20256;-81
2022/01/16 00:17:22;;;;;;;34.43;15.83;;;;;;;-0.26;77.42;95606.28;5105342;28;20212;-82
2022/01/16 00:19:51;;;;;;;39.27;17.87;;;;;;;-0.17;78.46;95620.03;5102017;28;20197;-83
2022/01/16 00:22:24;;;;;;;36.67;16.57;;;;;;;-0.16;79.75;95637.78;5102131;28;20205;-80
2022/01/16 00:24:54;;;;;;;36.17;17.03;;;;;;;-0.09;80.91;95659.31;5109564;28;20296;-79
2022/01/16 00:27:22;;;;;;;39.57;16.80;;;;;;;-0.10;81.54;95677.34;5108621;28;20213;-79
2022/01/16 00:29:49;;;;;;;35.90;16.47;;;;;;;-0.12;82.25;95703.03;5096334;28;20225;-85
2022/01/16 00:32:20;;;;;;;37.63;17.93;;;;;;;-0.07;82.90;95726.44;5097102;28;20193;-74
2022/01/16 00:34:48;;;;;;;37.03;16.70;;;;;;;-0.03;83.17;95646.03;5084631;28;20205;-75
2022/01/16 00:37:17;;;;;;;43.33;18.20;;;;;;;-0.06;83.43;95582.44;5085501;28;20671;-75
2022/01/16 00:39:45;;;;;;;36.10;15.90;;;;;;;-0.13;84.50;95640.09;5084254;28;20691;-75
2022/01/16 00:42:13;;;;;;;31.87;16.20;;;;;;;-0.12;84.85;95626.41;5087555;28;20574;-75
2022/01/16 00:44:40;;;;;;;37.20;16.83;;;;;;;-0.06;84.47;95513.47;5081746;28;20221;-76
2022/01/16 00:47:08;;;;;;;36.57;17.70;;;;;;;-0.11;84.06;95535.25;5084066;28;20200;-76
2022/01/16 00:49:39;;;;;;;39.13;17.97;;;;;;;-0.39;86.91;95556.38;5087722;28;20744;-75
2022/01/16 00:52:08;;;;;;;41.77;18.57;;;;;;;-0.34;87.36;95455.50;5087511;28;20284;-75
2022/01/16 00:54:36;;;;;;;39.17;17.17;;;;;;;-0.20;86.59;95485.75;5087274;28;20205;-76
2022/01/16 00:57:04;;;;;;;38.13;17.80;;;;;;;-0.12;86.65;95493.59;5087156;28;20216;-75
2022/01/16 00:59:32;;;;;;;35.73;17.67;;;;;;;-0.09;85.76;95479.75;5086904;28;20940;-75
2022/01/16 01:02:01;;;;;;;36.87;17.10;;;;;;;-0.03;85.55;95528.53;5088092;28;20237;-75
2022/01/16 01:04:29;;;;;;;29.17;16.57;;;;;;;-0.02;85.11;95563.38;5086971;28;20221;-75
2022/01/16 01:06:58;;;;;;;41.23;17.97;;;;;;;0.06;84.45;95567.81;5087184;28;20205;-75
2022/01/16 01:09:26;;;;;;;34.83;17.13;;;;;;;0.08;84.00;95542.97;5087223;28;20235;-75
2022/01/16 01:11:54;;;;;;;34.43;16.70;;;;;;;0.15;83.68;95558.53;5087208;28;20385;-74
2022/01/16 01:14:37;;;;;;;30.70;16.50;;;;;;;0.14;83.71;95595.28;5085148;28;20574;-75
2022/01/16 01:17:07;;;;;;;35.07;17.03;;;;;;;0.10;84.33;95564.06;5086679;28;20212;-75
2022/01/16 01:19:35;;;;;;;33.97;18.40;;;;;;;0.18;83.48;95556.53;5086803;28;20231;-74
2022/01/16 01:22:08;;;;;;;36.17;15.47;;;;;;;0.16;83.61;95575.50;5086950;28;20753;-74
2022/01/16 01:24:36;;;;;;;31.60;15.50;;;;;;;0.14;83.17;95547.53;5086524;28;20750;-74
2022/01/16 01:27:12;;;;;;;30.70;15.97;;;;;;;0.09;83.72;95562.44;5085931;28;20295;-75
2022/01/16 01:29:44;;;;;;;39.03;19.10;;;;;;;0.01;84.02;95559.75;5085471;28;20246;-75
2022/01/16 01:32:12;;;;;;;38.10;19.13;;;;;;;0.07;84.38;95566.06;5086521;28;20200;-75
2022/01/16 01:34:41;;;;;;;39.10;17.93;;;;;;;0.09;84.17;95559.88;5086434;28;20645;-75
2022/01/16 01:37:10;;;;;;;42.53;18.00;;;;;;;0.09;84.09;95579.53;5086375;28;20205;-74
2022/01/16 01:39:39;;;;;;;32.67;16.83;;;;;;;0.10;83.72;95576.84;5086783;28;20208;-74
2022/01/16 01:42:10;;;;;;;33.87;16.43;;;;;;;0.05;84.32;95591.75;5086538;28;20269;-74
2022/01/16 01:53:01;;;;;;;22.30;11.47;;;;;;;-0.04;85.40;95610.41;5083093;28;20208;-76
2022/01/16 01:55:30;;;;;;;22.60;11.77;;;;;;;-0.01;85.36;95592.28;5086677;28;20625;-77
2022/01/16 01:57:57;;;;;;;23.93;11.80;;;;;;;0.10;85.51;95616.91;5086816;28;20234;-75
2022/01/16 02:00:26;;;;;;;23.80;12.20;;;;;;;0.10;84.94;95611.78;5085601;28;20589;-76
2022/01/16 02:03:13;;;;;;;23.77;11.77;;;;;;;0.13;84.96;95606.44;5087374;28;20204;-76
2022/01/16 02:05:43;;;;;;;27.63;14.37;;;;;;;-0.08;85.66;95599.66;5085095;28;20220;-74
2022/01/16 02:08:13;;;;;;;22.13;12.83;;;;;;;-0.44;89.18;95604.47;5086014;28;20201;-74
2022/01/16 02:10:42;;;;;;;24.57;12.93;;;;;;;-0.65;90.78;95612.16;5084863;28;20792;-74
2022/01/16 02:13:20;;;;;;;23.67;13.83;;;;;;;-0.80;91.93;95621.06;5085679;28;20978;-75
2022/01/16 02:30:20;;;;;;;23.03;12.33;;;;;;;-0.91;100.00;95610.91;5085053;28;20357;-75
2022/01/16 02:32:49;;;;;;;24.17;12.73;;;;;;;-0.89;100.00;95607.31;5085443;28;20209;-74
2022/01/16 02:35:17;;;;;;;26.70;13.17;;;;;;;-1.04;100.00;95605.22;5085399;28;20813;-74
2022/01/16 02:37:49;;;;;;;24.07;13.10;;;;;;;-1.17;100.00;95603.66;5089508;28;20204;-74
2022/01/16 02:40:24;;;;;;;27.33;12.60;;;;;;;-1.21;100.00;95594.59;5089368;28;20209;-74
2022/01/16 02:42:52;;;;;;;23.83;12.47;;;;;;;-1.12;100.00;95593.06;5089897;28;20200;-75
2022/01/16 02:45:31;;;;;;;22.97;12.40;;;;;;;-0.93;100.00;95592.41;5088876;28;20833;-75
2022/01/16 02:48:03;;;;;;;24.83;13.37;;;;;;;-0.80;100.00;95600.66;5088613;28;20204;-74
2022/01/16 02:50:31;;;;;;;29.03;14.80;;;;;;;-0.66;100.00;95601.13;5089841;28;20204;-74
2022/01/16 02:52:59;;;;;;;26.87;14.43;;;;;;;-0.59;100.00;95588.69;5089935;28;20209;-75
2022/01/16 02:55:29;;;;;;;25.70;14.30;;;;;;;-0.55;100.00;95586.69;5089030;28;20201;-75
2022/01/16 02:57:57;;;;;;;24.33;13.77;;;;;;;-0.57;100.00;95587.63;5090012;28;20280;-74
2022/01/16 03:00:26;;;;;;;27.97;15.17;;;;;;;-0.47;100.00;95590.22;5089102;28;21040;-74
2022/01/16 03:02:55;;;;;;;28.07;14.37;;;;;;;-0.44;100.00;95587.44;5089932;28;20204;-74
2022/01/16 03:05:23;;;;;;;31.07;15.43;;;;;;;-0.39;100.00;95584.47;5089082;28;20248;-77
2022/01/16 03:07:51;;;;;;;28.50;15.33;;;;;;;-0.41;100.00;95576.97;5089769;28;20201;-76
2022/01/16 03:10:48;;;;;;;31.37;16.80;;;;;;;-0.28;100.00;95586.94;5088986;28;20203;-76
2022/01/16 03:13:21;;;;;;;30.53;15.83;;;;;;;-0.27;99.92;95573.25;5088252;28;20204;-76
2022/01/16 03:15:52;;;;;;;28.23;14.77;;;;;;;-0.24;100.00;95589.13;5085674;28;20667;-78
2022/01/16 03:23:50;;;;;;;24.73;14.83;;;;;;;-0.21;99.36;95585.50;5088608;28;20208;-77
2022/01/16 03:26:18;;;;;;;35.87;17.33;;;;;;;-0.16;98.81;95585.91;5088699;28;20201;-79
2022/01/16 03:28:47;;;;;;;33.23;18.00;;;;;;;-0.12;98.33;95588.09;5089348;28;20266;-77
2022/01/16 03:31:16;;;;;;;34.70;19.00;;;;;;;-0.08;98.22;95594.53;5088769;28;20243;-78
2022/01/16 03:33:44;;;;;;;33.47;18.77;;;;;;;-0.06;97.98;95586.75;5089310;28;20215;-76
2022/01/16 03:36:13;;;;;;;36.57;19.33;;;;;;;-0.07;97.90;95591.06;5088564;28;20204;-76
2022/01/16 03:38:42;;;;;;;33.07;18.13;;;;;;;-0.04;97.27;95592.53;5088083;28;20211;-76
2022/01/16 03:41:10;;;;;;;33.20;19.37;;;;;;;-0.04;96.94;95605.31;5089406;28;20205;-77
2022/01/16 03:43:38;;;;;;;33.83;17.30;;;;;;;-0.12;97.20;95605.97;5088446;28;20196;-77
2022/01/16 03:46:07;;;;;;;30.37;16.47;;;;;;;-0.15;97.76;95603.66;5088201;28;20225;-77
2022/01/16 03:48:35;;;;;;;38.10;18.50;;;;;;;-0.25;98.01;95602.81;5085953;28;20616;-76
2022/01/16 03:51:03;;;;;;;35.50;17.90;;;;;;;-0.24;97.87;95598.53;5087867;28;20714;-78
2022/01/16 03:53:31;;;;;;;33.80;17.77;;;;;;;-0.29;97.83;95587.88;5088663;28;20215;-77
2022/01/16 03:55:59;;;;;;;38.67;19.50;;;;;;;-0.19;97.22;95606.59;5089196;28;20223;-77
2022/01/16 03:58:28;;;;;;;29.10;17.30;;;;;;;-0.24;97.18;95604.44;5088340;28;20244;-77
2022/01/16 04:00:56;;;;;;;34.73;17.33;;;;;;;-0.27;97.58;95609.00;5088467;28;20212;-75
2022/01/16 04:03:26;;;;;;;29.47;16.27;;;;;;;-0.30;97.50;95601.59;5088565;28;20204;-75
2022/01/16 04:05:55;;;;;;;32.10;16.57;;;;;;;-0.33;97.37;95605.19;5084391;28;20232;-75
2022/01/16 04:08:23;;;;;;;32.03;17.17;;;;;;;-0.43;97.99;95612.00;5087396;28;20212;-75
2022/01/16 04:10:53;;;;;;;32.83;17.17;;;;;;;-0.45;98.77;95611.31;5083451;28;20204;-75
2022/01/16 04:13:22;;;;;;;32.33;17.03;;;;;;;-0.44;98.79;95618.06;5087352;28;20201;-75
2022/01/16 04:15:50;;;;;;;33.77;18.00;;;;;;;-0.38;98.20;95616.75;5089225;28;20269;-75
2022/01/16 04:18:19;;;;;;;33.10;17.47;;;;;;;-0.37;98.12;95615.78;5087564;28;20200;-75
2022/01/16 04:20:48;;;;;;;35.47;18.80;;;;;;;-0.42;98.03;95611.06;5087756;28;20208;-75
2022/01/16 04:23:15;;;;;;;35.20;18.07;;;;;;;-0.50;98.23;95607.53;5087014;28;20275;-76
2022/01/16 04:25:45;;;;;;;31.73;16.87;;;;;;;-0.41;98.22;95622.91;5089006;28;20680;-76
2022/01/16 04:28:14;;;;;;;34.63;18.37;;;;;;;-0.42;97.84;95621.28;5087315;28;20205;-75
2022/01/16 04:30:42;;;;;;;34.27;18.93;;;;;;;-0.45;97.76;95626.63;5087355;28;20237;-76
2022/01/16 04:33:09;;;;;;;36.00;19.17;;;;;;;-0.38;97.37;95632.88;5087375;28;20205;-75
2022/01/16 04:35:38;;;;;;;35.23;18.13;;;;;;;-0.39;97.34;95646.56;5087533;28;20201;-75
2022/01/16 04:38:08;;;;;;;32.00;17.97;;;;;;;-0.44;97.70;95641.03;5087498;28;20711;-75
2022/01/16 04:40:44;;;;;;;34.13;17.80;;;;;;;-0.42;97.21;95640.88;5086862;28;20247;-76
2022/01/16 04:46:00;;;;;;;35.60;19.40;;;;;;;-0.43;97.40;95629.88;5086695;28;20216;-75
2022/01/16 04:48:29;;;;;;;34.67;19.70;;;;;;;-0.41;96.66;95635.69;5086361;28;20205;-74
2022/01/16 04:50:57;;;;;;;35.53;18.97;;;;;;;-0.36;96.44;95636.09;5087643;28;20196;-76
2022/01/16 04:53:28;;;;;;;35.80;19.00;;;;;;;-0.29;96.01;95631.28;5086644;28;21447;-75
2022/01/16 04:55:57;;;;;;;34.10;17.50;;;;;;;-0.26;96.06;95628.50;5087826;28;20197;-75
2022/01/16 04:58:25;;;;;;;27.53;15.17;;;;;;;-0.21;95.44;95627.16;5086284;28;20292;-75
2022/01/16 05:00:55;;;;;;;29.97;16.50;;;;;;;-0.15;95.16;95621.56;5087061;28;20948;-76
2022/01/16 05:03:23;;;;;;;35.10;18.13;;;;;;;-0.14;95.09;95630.81;5087209;28;20204;-76
2022/01/16 05:05:51;;;;;;;40.23;20.67;;;;;;;-0.11;94.45;95637.41;5087549;28;20236;-76
2022/01/16 05:08:19;;;;;;;41.73;22.53;;;;;;;-0.04;94.26;95630.84;5086352;28;20201;-76
2022/01/16 05:10:52;;;;;;;39.07;21.47;;;;;;;-0.04;93.62;95631.66;5087466;28;20266;-76
2022/01/16 05:13:30;;;;;;;35.20;18.93;;;;;;;-0.06;93.23;95628.41;5085942;28;20215;-78
2022/01/16 05:18:45;;;;;;;38.33;20.03;;;;;;;0.07;92.79;95620.53;5084760;28;20204;-77
2022/01/16 05:21:12;;;;;;;42.17;21.00;;;;;;;0.11;92.11;95629.56;5086138;28;20222;-77
2022/01/16 05:23:41;;;;;;;37.63;19.23;;;;;;;0.06;91.85;95636.00;5087091;28;20291;-77
2022/01/16 05:26:11;;;;;;;38.07;20.73;;;;;;;-0.09;92.89;95638.09;5086752;28;20232;-79
2022/01/16 05:28:39;;;;;;;35.43;19.20;;;;;;;-0.12;93.32;95631.50;5086190;28;20224;-77
2022/01/16 05:31:07;;;;;;;35.87;19.87;;;;;;;-0.20;93.49;95612.63;5086748;28;20260;-77
2022/01/16 05:33:35;;;;;;;39.37;18.70;;;;;;;-0.19;93.93;95617.63;5086787;28;20208;-76
2022/01/16 05:36:04;;;;;;;33.57;19.13;;;;;;;-0.18;93.84;95626.09;5086871;28;20209;-77
2022/01/16 05:38:32;;;;;;;31.93;17.53;;;;;;;-0.17;94.43;95630.25;5086347;28;20232;-77
2022/01/16 05:41:00;;;;;;;28.07;14.87;;;;;;;-0.18;94.17;95632.03;5086510;28;20204;-79
2022/01/16 05:43:30;;;;;;;26.20;14.63;;;;;;;-0.22;94.34;95622.16;5086241;28;20291;-77
2022/01/16 05:45:58;;;;;;;28.37;15.23;;;;;;;-0.24;95.07;95629.97;5086880;28;20230;-76
2022/01/16 05:48:28;;;;;;;26.37;15.53;;;;;;;-0.22;94.85;95630.66;5086124;28;20299;-76
2022/01/16 05:50:56;;;;;;;29.97;15.47;;;;;;;-0.11;94.82;95645.88;5087670;28;20208;-74
2022/01/16 05:53:25;;;;;;;33.50;17.20;;;;;;;-0.42;95.14;95634.03;5085591;28;20262;-75
2022/01/16 05:55:53;;;;;;;31.50;17.53;;;;;;;-0.47;96.36;95643.03;5086903;28;20204;-75
2022/01/16 05:58:22;;;;;;;37.80;18.70;;;;;;;-0.45;96.60;95646.25;5084925;28;20601;-76
2022/01/16 06:00:51;;;;;;;38.67;19.43;;;;;;;-0.40;97.33;95651.78;5086549;28;20208;-75
2022/01/16 06:03:21;;;;;;;29.10;16.53;;;;;;;-0.26;95.78;95646.38;5085586;28;20228;-75
2022/01/16 06:05:48;;;;;;;30.80;16.27;;;;;;;-0.25;94.60;95638.56;5086242;28;20634;-76
2022/01/16 06:08:18;;;;;;;34.17;17.80;;;;;;;-0.22;94.79;95648.53;5085267;28;20208;-75
2022/01/16 06:10:47;;;;;;;36.73;20.90;;;;;;;-0.18;94.21;95655.00;5080770;28;20204;-75
2022/01/16 06:13:15;;;;;;;35.27;19.33;;;;;;;-0.12;94.00;95649.38;5087694;28;20238;-75
2022/01/16 06:15:46;;;;;;;36.83;20.80;;;;;;;-0.05;92.25;95647.09;5084798;28;20244;-75
2022/01/16 06:18:17;;;;;;;42.90;23.10;;;;;;;-0.01;92.10;95656.97;5088126;28;20794;-75
2022/01/16 06:20:47;;;;;;;55.53;27.80;;;;;;;0.05;91.55;95657.38;5089229;28;21016;-75
2022/01/16 06:23:16;;;;;;;54.17;28.60;;;;;;;0.13;90.43;95657.53;5087817;28;20258;-75
2022/01/16 06:25:45;;;;;;;50.83;24.93;;;;;;;0.19;90.44;95657.00;5090171;28;20289;-71
2022/01/16 06:28:14;;;;;;;48.13;24.90;;;;;;;0.24;90.03;95667.66;5089041;28;20267;-69
2022/01/16 06:30:42;;;;;;;29.53;16.10;;;;;;;0.24;87.22;95675.31;5089252;28;20324;-69
2022/01/16 06:33:11;;;;;;;27.27;14.67;;;;;;;0.17;85.11;95672.50;5088789;28;20201;-70
2022/01/16 06:35:41;;;;;;;24.77;14.27;;;;;;;-0.02;84.64;95678.31;5090474;28;20676;-70
2022/01/16 06:38:08;;;;;;;28.47;16.53;;;;;;;-0.05;85.41;95685.41;5089869;28;20262;-70
2022/01/16 06:40:37;;;;;;;33.60;18.27;;;;;;;-0.06;86.94;95687.16;5088519;28;20721;-70
2022/01/16 06:43:05;;;;;;;37.50;19.37;;;;;;;0.09;89.54;95689.41;5087725;28;20243;-70
2022/01/16 06:45:33;;;;;;;38.57;19.03;;;;;;;0.05;91.18;95691.41;5092564;28;20298;-78
2022/01/16 06:48:00;;;;;;;31.53;17.30;;;;;;;0.15;91.43;95684.56;5091299;28;20291;-71
2022/01/16 06:50:30;;;;;;;35.07;18.20;;;;;;;0.17;88.79;95680.16;5088132;28;20566;-71
2022/01/16 06:52:59;;;;;;;46.10;24.83;;;;;;;0.09;89.07;95676.63;5089327;28;20205;-71
2022/01/16 06:55:28;;;;;;;34.47;18.13;;;;;;;0.26;89.18;95683.69;5088009;28;20313;-71
2022/01/16 06:57:56;;;;;;;32.53;17.93;;;;;;;0.30;89.00;95683.28;5089811;28;20221;-72
2022/01/16 07:00:24;;;;;;;35.20;17.87;;;;;;;0.42;88.83;95694.22;5089160;28;20313;-71
2022/01/16 07:02:52;;;;;;;33.10;18.10;;;;;;;0.53;87.67;95699.22;5088849;28;20948;-70
2022/01/16 07:05:20;;;;;;;31.13;17.17;;;;;;;0.52;87.17;95695.84;5088673;28;20241;-71
2022/01/16 07:07:47;;;;;;;32.27;18.70;;;;;;;0.56;85.93;95711.75;5089031;28;21127;-70
2022/01/16 07:10:16;;;;;;;33.73;18.50;;;;;;;0.54;85.74;95711.06;5088204;28;20201;-70
2022/01/16 07:12:43;;;;;;;35.67;19.50;;;;;;;0.49;85.27;95710.66;5088045;28;20245;-71
2022/01/16 07:15:12;;;;;;;36.87;20.63;;;;;;;0.38;85.87;95719.22;5088287;28;20262;-72
2022/01/16 07:17:48;;;;;;;39.77;22.30;;;;;;;0.42;86.30;95712.91;5089016;28;20208;-74
2022/01/16 07:20:17;;;;;;;36.70;20.57;;;;;;;0.50;86.25;95715.63;5086531;28;20204;-73
2022/01/16 07:22:45;;;;;;;48.93;22.97;;;;;;;0.49;85.99;95713.22;5087933;28;20201;-72
2022/01/16 07:25:14;;;;;;;60.60;26.10;;;;;;;0.37;86.30;95712.50;5086569;28;20192;-72
2022/01/16 07:27:43;;;;;;;65.50;28.87;;;;;;;0.22;86.96;95707.88;5087701;28;20226;-72
2022/01/16 07:30:11;;;;;;;65.97;27.33;;;;;;;0.18;87.43;95702.19;5084713;28;20700;-71
2022/01/16 07:32:40;;;;;;;38.27;18.97;;;;;;;0.28;87.90;95712.47;5086199;28;20310;-71
2022/01/16 07:35:11;;;;;;;31.03;18.13;;;;;;;0.28;88.00;95708.16;5087121;28;20277;-73
2022/01/16 07:37:40;;;;;;;31.67;17.50;;;;;;;0.44;86.92;95713.59;5088139;28;20205;-71
2022/01/16 07:40:10;;;;;;;28.43;16.73;;;;;;;0.40;86.85;95709.69;5086667;28;20209;-71
2022/01/16 07:42:39;;;;;;;24.20;14.57;;;;;;;0.58;86.51;95723.44;5086088;28;20247;-71
2022/01/16 07:45:09;;;;;;;29.10;15.43;;;;;;;0.65;86.25;95730.59;5087659;28;20206;-71
2022/01/16 07:47:37;;;;;;;30.43;16.87;;;;;;;0.74;86.08;95734.94;5088157;28;20660;-72
2022/01/16 07:50:07;;;;;;;33.53;19.13;;;;;;;0.84;85.57;95728.88;5086621;28;20236;-72
2022/01/16 07:52:34;;;;;;;38.47;20.53;;;;;;;0.89;85.41;95721.66;5085040;28;20599;-72
2022/01/16 07:55:03;;;;;;;40.33;21.83;;;;;;;0.86;85.35;95736.44;5086212;28;20206;-71
2022/01/16 07:57:32;;;;;;;40.50;20.70;;;;;;;0.78;85.83;95741.41;5086810;28;20204;-72
2022/01/16 08:00:00;;;;;;;43.83;21.93;;;;;;;0.75;85.97;95742.47;5086290;28;20206;-72
2022/01/16 08:02:30;;;;;;;42.53;23.37;;;;;;;0.81;85.98;95741.94;5085252;28;20293;-72
2022/01/16 08:04:57;;;;;;;44.73;22.83;;;;;;;0.77;85.53;95735.50;5083161;28;20205;-71
2022/01/16 08:07:26;;;;;;;34.73;19.47;;;;;;;0.60;85.88;95731.00;5087424;28;20321;-71
2022/01/16 08:09:55;;;;;;;37.20;19.67;;;;;;;0.25;88.30;95733.16;5083143;28;20259;-71
2022/01/16 08:12:27;;;;;;;34.33;19.60;;;;;;;0.32;88.68;95722.28;5085409;28;20651;-72
2022/01/16 08:14:54;;;;;;;28.77;16.33;;;;;;;0.43;88.42;95719.63;5087598;28;20193;-72
2022/01/16 08:17:24;;;;;;;27.13;14.83;;;;;;;0.55;87.60;95731.38;5086266;28;20617;-71
2022/01/16 08:19:53;;;;;;;22.07;13.00;;;;;;;0.80;86.27;95744.66;5088345;28;20208;-71
2022/01/16 08:22:22;;;;;;;29.07;15.77;;;;;;;0.79;84.82;95730.22;5085838;28;20205;-72
2022/01/16 08:24:50;;;;;;;25.33;14.10;;;;;;;0.63;85.24;95733.31;5086780;28;20228;-72
2022/01/16 08:27:18;;;;;;;29.23;15.53;;;;;;;0.51;85.97;95729.22;5086050;28;20669;-72
2022/01/16 08:29:46;;;;;;;27.83;15.00;;;;;;;0.58;86.22;95726.00;5087470;28;20233;-72
2022/01/16 08:32:14;;;;;;;26.50;13.03;;;;;;;0.62;84.99;95716.34;5086806;28;20275;-71
2022/01/16 08:34:42;;;;;;;29.03;14.70;;;;;;;0.47;86.37;95727.84;5086159;28;20269;-72
2022/01/16 08:37:11;;;;;;;23.63;13.73;;;;;;;0.52;86.11;95723.97;5086173;28;20279;-73
2022/01/16 08:39:39;;;;;;;24.67;12.97;;;;;;;0.58;86.45;95720.91;5086843;28;20739;-72
2022/01/16 08:42:08;;;;;;;24.30;13.33;;;;;;;0.73;86.37;95721.34;5086783;28;20274;-72
2022/01/16 08:44:38;;;;;;;20.40;12.30;;;;;;;0.80;85.83;95724.19;5086057;28;20789;-73
2022/01/16 08:47:07;;;;;;;19.60;11.10;;;;;;;0.78;85.37;95729.41;5086134;28;20216;-71
2022/01/16 08:49:35;;;;;;;17.97;10.70;;;;;;;0.93;84.31;95727.28;5087041;28;20648;-72
2022/01/16 08:52:03;;;;;;;20.73;12.03;;;;;;;0.97;83.93;95726.09;5087006;28;20205;-74
2022/01/16 08:54:34;;;;;;;21.13;11.73;;;;;;;0.91;83.83;95721.50;5086348;28;20208;-73
2022/01/16 08:57:04;;;;;;;23.40;12.27;;;;;;;0.99;84.04;95713.97;5087038;28;20201;-86
2022/01/16 08:59:32;;;;;;;28.23;13.77;;;;;;;0.91;84.33;95722.31;5087886;28;20204;-84
2022/01/16 09:02:00;;;;;;;23.70;13.60;;;;;;;0.97;84.24;95711.56;5087655;28;20202;-78
2022/01/16 09:04:28;;;;;;;23.20;11.80;;;;;;;0.89;83.36;95706.31;5087698;28;20766;-83
2022/01/16 09:06:56;;;;;;;21.60;12.13;;;;;;;0.90;83.72;95710.47;5088740;28;20257;-84
2022/01/16 09:09:24;;;;;;;21.00;11.47;;;;;;;0.88;83.53;95706.41;5091268;28;20233;-84
2022/01/16 09:11:54;;;;;;;16.87;10.83;;;;;;;0.86;84.62;95714.25;5086685;28;20205;-84
2022/01/16 09:14:23;;;;;;;16.80;9.20;;;;;;;1.01;83.81;95702.66;5090591;28;20215;-85
2022/01/16 09:16:51;;;;;;;17.17;10.33;;;;;;;1.10;83.04;95696.72;5095948;28;20200;-88
2022/01/16 09:19:20;;;;;;;18.33;10.83;;;;;;;1.17;82.60;95704.69;5094125;28;20322;-84
2022/01/16 09:21:48;;;;;;;24.40;12.13;;;;;;;1.21;83.26;95700.13;5088235;28;20197;-82
2022/01/16 09:24:16;;;;;;;20.50;11.87;;;;;;;1.36;82.43;95693.63;5087031;28;20197;-81
2022/01/16 09:26:44;;;;;;;18.23;11.83;;;;;;;1.38;81.38;95700.25;5086786;28;20220;-81
2022/01/16 09:29:14;;;;;;;21.40;11.30;;;;;;;1.41;81.67;95679.50;5087298;28;20724;-81
2022/01/16 09:31:42;;;;;;;18.10;10.60;;;;;;;1.54;80.97;95685.13;5087855;28;20205;-79
2022/01/16 09:34:12;;;;;;;21.57;11.93;;;;;;;1.55;80.76;95668.00;5086682;28;20206;-83
2022/01/16 09:36:40;;;;;;;15.73;10.03;;;;;;;1.70;80.38;95682.78;5083044;28;20615;-79
2022/01/16 09:39:08;;;;;;;17.83;10.33;;;;;;;1.79;79.35;95672.69;5087135;28;20200;-83
2022/01/16 09:41:36;;;;;;;21.70;10.60;;;;;;;1.93;78.47;95673.03;5087598;28;20185;-81
2022/01/16 09:44:04;;;;;;;15.60;9.90;;;;;;;1.83;78.52;95659.44;5086375;28;20231;-80
2022/01/16 09:46:34;;;;;;;22.30;10.83;;;;;;;1.81;79.03;95666.47;5087215;28;20298;-85
2022/01/16 09:49:02;;;;;;;18.77;10.50;;;;;;;1.93;78.60;95659.41;5087190;28;20219;-85
2022/01/16 09:51:32;;;;;;;22.40;10.40;;;;;;;2.04;78.07;95665.19;5090053;28;20240;-85
2022/01/16 09:54:00;;;;;;;20.30;11.07;;;;;;;2.11;77.40;95648.28;5089773;28;20196;-86
2022/01/16 09:56:29;;;;;;;18.53;11.20;;;;;;;2.17;77.46;95657.97;5088950;28;20201;-83
2022/01/16 09:58:59;;;;;;;17.23;10.50;;;;;;;2.33;75.71;95647.09;5083558;28;20593;-86
2022/01/16 10:01:28;;;;;;;19.37;10.80;;;;;;;2.13;77.10;95653.28;5086654;28;20695;-84
2022/01/16 10:03:57;;;;;;;19.50;11.13;;;;;;;2.25;77.42;95652.94;5086586;28;20203;-87
2022/01/16 10:06:26;;;;;;;18.77;10.93;;;;;;;2.68;76.58;95641.22;5085759;28;20220;-84
2022/01/16 10:08:56;;;;;;;19.50;10.63;;;;;;;3.89;72.57;95621.59;5086054;28;20667;-84
2022/01/16 10:11:34;;;;;;;22.77;10.77;;;;;;;5.73;64.11;95645.28;5086720;28;20663;-85
2022/01/16 10:14:11;;;;;;;14.97;9.80;;;;;;;7.65;57.17;95648.84;5084495;28;20227;-87
2022/01/16 10:16:42;;;;;;;14.90;8.70;;;;;;;9.63;49.85;95625.16;5082840;28;20224;-85
2022/01/16 10:19:22;;;;;;;17.07;9.27;;;;;;;11.73;44.31;95641.66;5087592;28;20211;-84
2022/01/16 10:21:52;;;;;;;19.37;9.40;;;;;;;13.33;41.18;95655.69;5085331;28;20188;-85
2022/01/16 10:24:23;;;;;;;15.47;9.87;;;;;;;13.60;39.58;95649.28;5086021;28;20240;-83
2022/01/16 10:27:12;;;;;;;16.37;10.10;;;;;;;14.09;38.70;95643.25;5087161;28;20231;-83
2022/01/16 10:29:41;;;;;;;14.33;9.93;;;;;;;14.57;37.03;95648.66;5081130;28;20753;-84
2022/01/16 10:32:14;;;;;;;15.37;10.23;;;;;;;15.16;35.78;95647.94;5086352;28;20211;-83
2022/01/16 10:34:44;;;;;;;15.90;9.80;;;;;;;15.64;34.40;95629.56;5081866;28;20204;-85
2022/01/16 10:37:26;;;;;;;17.23;11.17;;;;;;;16.81;32.10;95631.16;5086864;28;20257;-85
2022/01/16 10:39:58;;;;;;;16.17;10.00;;;;;;;17.52;31.17;95636.72;5087275;28;20211;-84
2022/01/16 10:42:27;;;;;;;12.70;9.13;;;;;;;17.74;30.91;95646.59;5086387;28;20304;-85
2022/01/16 10:45:01;;;;;;;13.00;9.77;;;;;;;17.84;30.52;95629.13;5087400;28;20207;-84
2022/01/16 10:47:38;;;;;;;13.60;9.53;;;;;;;17.74;29.86;95625.56;5086250;28;20307;-83
2022/01/16 10:50:16;;;;;;;15.97;10.03;;;;;;;18.12;29.41;95623.00;5083775;28;20201;-86
2022/01/16 10:52:53;;;;;;;16.83;9.60;;;;;;;18.41;28.46;95623.69;5081478;28;20300;-84
2022/01/16 10:55:24;;;;;;;13.80;9.93;;;;;;;19.06;27.75;95629.81;5085973;28;20235;-83
2022/01/16 10:58:01;;;;;;;15.23;10.83;;;;;;;19.70;27.14;95627.31;5088049;28;20195;-83
2022/01/16 11:00:30;;;;;;;14.57;10.00;;;;;;;19.84;27.08;95617.94;5092855;28;20201;-87
2022/01/16 11:03:02;;;;;;;17.47;11.47;;;;;;;19.93;26.30;95611.16;5090116;28;20200;-74
2022/01/16 11:05:35;;;;;;;17.90;12.77;;;;;;;19.56;26.53;95605.84;5088505;28;20208;-74
2022/01/16 11:08:06;;;;;;;21.57;14.93;;;;;;;19.29;26.72;95612.91;5088718;28;20632;-76
2022/01/16 11:10:36;;;;;;;17.83;12.57;;;;;;;19.14;27.27;95612.75;5088646;28;20288;-73
2022/01/16 11:13:10;;;;;;;16.63;11.63;;;;;;;18.85;27.71;95606.88;5085970;28;20247;-77
2022/01/16 11:15:40;;;;;;;18.67;11.90;;;;;;;19.30;26.97;95613.72;5083711;28;20236;-75
2022/01/16 11:18:09;;;;;;;19.80;11.43;;;;;;;19.21;27.13;95603.63;5088611;28;20339;-73
2022/01/16 11:20:44;;;;;;;17.70;11.07;;;;;;;19.35;27.26;95608.47;5089279;28;20236;-75
2022/01/16 11:23:16;;;;;;;18.60;11.70;;;;;;;18.79;27.87;95605.22;5088296;28;20192;-74
2022/01/16 11:25:46;;;;;;;17.27;11.43;;;;;;;19.32;26.99;95599.22;5085486;28;20219;-73
2022/01/16 11:28:18;;;;;;;16.23;11.57;;;;;;;19.52;26.88;95590.75;5087744;28;20201;-72
2022/01/16 11:30:50;;;;;;;15.60;11.47;;;;;;;19.24;26.87;95595.22;5088109;28;20232;-73
2022/01/16 11:33:18;;;;;;;13.80;11.20;;;;;;;19.01;26.87;95590.22;5089914;28;20209;-72
2022/01/16 11:35:52;;;;;;;15.80;11.57;;;;;;;19.30;26.80;95576.81;5093110;28;20321;-71
2022/01/16 11:38:21;;;;;;;16.50;11.73;;;;;;;18.90;27.19;95579.81;5092719;28;20243;-73
2022/01/16 11:40:49;;;;;;;21.43;12.13;;;;;;;18.26;28.31;95582.16;5093619;28;20223;-72
2022/01/16 11:43:24;;;;;;;17.20;11.57;;;;;;;18.47;27.87;95570.06;5093737;28;20208;-73
2022/01/16 11:46:13;;;;;;;14.70;11.50;;;;;;;18.82;27.58;95570.50;5095362;28;20660;-73
2022/01/16 11:48:49;;;;;;;26.07;15.07;;;;;;;18.94;26.85;95576.44;5090137;28;20212;-72
2022/01/16 11:52:02;;;;;;;19.03;11.90;;;;;;;18.62;27.62;95570.25;5088726;28;20296;-73
2022/01/16 11:54:45;;;;;;;21.57;12.90;;;;;;;18.19;27.96;95573.63;5080945;28;20204;-73
2022/01/16 11:57:22;;;;;;;17.97;13.13;;;;;;;18.37;27.55;95572.53;5085639;28;20260;-73
2022/01/16 11:59:52;;;;;;;17.00;12.90;;;;;;;18.72;27.18;95573.03;5087348;28;20204;-74
2022/01/16 12:02:25;;;;;;;15.93;12.77;;;;;;;19.24;26.98;95568.06;5087335;28;20320;-73
2022/01/16 12:05:05;;;;;;;22.00;12.60;;;;;;;19.08;26.51;95568.94;5084309;28;20205;-74
2022/01/16 12:07:48;;;;;;;21.17;13.60;;;;;;;18.50;27.15;95566.94;5088642;28;20285;-75
2022/01/16 12:10:57;;;;;;;20.27;12.50;;;;;;;18.50;27.49;95562.47;5085777;28;20199;-73